createdAt,value
2022-09-21T00:02:17.293Z,8.88
2022-09-21T00:07:19.833Z,8.89
2022-09-21T00:12:22.574Z,8.9
2022-09-21T00:17:25.432Z,9
2022-09-21T00:22:28.127Z,8.98
2022-09-21T00:27:30.837Z,8.99
2022-09-21T00:37:39.256Z,9
2022-09-21T00:42:41.823Z,8.98
2022-09-21T00:47:44.440Z,8.93
2022-09-21T00:52:47.082Z,8.98
2022-09-21T00:57:49.931Z,9
2022-09-21T01:02:52.588Z,9.02
2022-09-21T01:07:55.301Z,9.04
2022-09-21T01:12:58.487Z,9.07
2022-09-21T01:18:01.092Z,9.16
2022-09-21T01:23:03.775Z,9.13
2022-09-21T01:28:06.428Z,9.06
2022-09-21T01:33:09.077Z,8.96
2022-09-21T01:43:14.700Z,8.92
2022-09-21T01:53:20.125Z,8.89
2022-09-21T01:58:23.103Z,8.81
2022-09-21T02:08:28.259Z,8.85
2022-09-21T02:13:31.020Z,8.77
2022-09-21T02:18:33.769Z,8.75
2022-09-21T02:23:42.338Z,8.71
2022-09-21T02:28:45.345Z,8.68
2022-09-21T02:33:48.012Z,8.62
2022-09-21T02:43:53.507Z,8.5
2022-09-21T02:48:55.899Z,8.52
2022-09-21T02:53:58.453Z,8.52
2022-09-21T02:59:01.209Z,8.47
2022-09-21T03:04:03.784Z,8.51
2022-09-21T03:09:06.336Z,8.53
2022-09-21T03:19:14.337Z,8.56
2022-09-21T03:24:16.832Z,8.52
2022-09-21T03:29:22.910Z,8.52
2022-09-21T03:34:25.576Z,8.55
2022-09-21T03:39:28.293Z,8.54
2022-09-21T03:49:33.724Z,8.6
2022-09-21T03:54:36.686Z,8.48
2022-09-21T03:59:39.467Z,8.54
2022-09-21T04:04:42.113Z,8.51
2022-09-21T04:09:44.696Z,8.49
2022-09-21T04:14:50.411Z,8.61
2022-09-21T04:19:52.988Z,8.69
2022-09-21T04:24:55.878Z,8.75
2022-09-21T04:29:58.722Z,8.79
2022-09-21T04:35:01.483Z,8.78
2022-09-21T04:40:03.947Z,8.8
2022-09-21T04:45:06.539Z,8.77
2022-09-21T04:50:14.752Z,8.76
2022-09-21T04:55:17.473Z,8.73
2022-09-21T05:00:22.838Z,8.65
2022-09-21T05:05:25.447Z,8.73
2022-09-21T05:10:28.095Z,8.69
2022-09-21T05:15:31.080Z,8.65
2022-09-21T05:20:33.845Z,8.71
2022-09-21T05:25:36.709Z,8.75
2022-09-21T05:30:44.663Z,8.77
2022-09-21T05:35:41.954Z,9.03
2022-09-21T05:40:44.695Z,9.16
2022-09-21T05:45:47.981Z,9.4
2022-09-21T05:50:49.919Z,9.34
2022-09-21T05:55:52.577Z,9.73
2022-09-21T06:00:55.500Z,9.76
2022-09-21T06:05:58.138Z,9.69
2022-09-21T06:11:00.803Z,9.8
2022-09-21T06:16:03.237Z,10.03
2022-09-21T06:21:05.975Z,10.33
2022-09-21T06:26:08.470Z,10.21
2022-09-21T06:31:11.473Z,10.43
2022-09-21T06:36:14.046Z,10.64
2022-09-21T06:41:20.948Z,10.83
2022-09-21T06:46:19.699Z,10.92
2022-09-21T06:51:22.457Z,11.11
2022-09-21T06:56:25.057Z,11.08
2022-09-21T07:01:27.805Z,11.16
2022-09-21T07:06:30.696Z,11.51
2022-09-21T07:11:33.391Z,11.85
2022-09-21T07:21:39.353Z,12.15
2022-09-21T07:26:42.186Z,12.21
2022-09-21T07:36:47.483Z,12.1
2022-09-21T07:41:50.156Z,12.4
2022-09-21T07:46:52.960Z,12.28
2022-09-21T07:51:57.357Z,12.29
2022-09-21T07:56:58.284Z,12.53
2022-09-21T08:02:04.085Z,13.5
2022-09-21T08:07:07.062Z,13.85
2022-09-21T08:12:18.668Z,14.11
2022-09-21T08:17:21.614Z,14.78
2022-09-21T08:27:27.194Z,14
2022-09-21T08:32:49.710Z,14.53
2022-09-21T08:37:32.121Z,14.61
2022-09-21T08:42:35.152Z,14.47
2022-09-21T08:47:37.697Z,14.81
2022-09-21T08:52:40.294Z,14.89
2022-09-21T08:57:43.367Z,15.11
2022-09-21T09:02:45.934Z,15.18
2022-09-21T09:17:53.700Z,15.42
2022-09-21T09:22:56.282Z,15.49
2022-09-21T09:27:58.797Z,15.26
2022-09-21T09:33:01.618Z,16.17
2022-09-21T09:38:04.260Z,16.74
2022-09-21T09:43:07.217Z,17.45
2022-09-21T09:48:12.816Z,17.21
2022-09-21T09:53:18.467Z,17.27
2022-09-21T10:03:24.074Z,17.51
2022-09-21T10:08:26.810Z,18.83
2022-09-21T10:18:32.557Z,20.28
2022-09-21T10:23:35.169Z,19.03
2022-09-21T10:28:37.324Z,17.56
2022-09-21T10:33:39.951Z,17.39
2022-09-21T10:38:42.715Z,17.38
2022-09-21T10:43:45.301Z,17.26
2022-09-21T10:53:52.423Z,18.4
2022-09-21T10:58:54.395Z,18.69
2022-09-21T11:03:57.162Z,18.29
2022-09-21T11:08:59.711Z,17.93
2022-09-21T11:14:02.191Z,17.45
2022-09-21T11:19:04.989Z,17.27
2022-09-21T11:29:10.493Z,19.23
2022-09-21T11:39:16.187Z,19.81
2022-09-21T11:44:19.299Z,19.81
2022-09-21T11:49:20.971Z,18.57
2022-09-21T11:54:23.577Z,17.88
2022-09-21T11:59:26.180Z,18.19
2022-09-21T12:04:28.679Z,18.07
2022-09-21T12:14:34.056Z,17.7
2022-09-21T12:19:36.548Z,18.34
2022-09-21T12:24:42.284Z,19.17
2022-09-21T12:29:45.027Z,18.86
2022-09-21T12:34:50.378Z,18.3
2022-09-21T12:39:53.041Z,18.49
2022-09-21T12:49:58.084Z,17.52
2022-09-21T12:55:01.051Z,17.36
2022-09-21T13:10:09.524Z,18.92
2022-09-21T13:15:12.177Z,18.36
2022-09-21T13:25:17.634Z,19.02
2022-09-21T13:30:20.379Z,19.35
2022-09-21T13:35:23.074Z,18.51
2022-09-21T13:40:25.506Z,17.44
2022-09-21T13:45:27.900Z,16.95
2022-09-21T13:50:30.685Z,16.55
2022-09-21T13:55:33.204Z,16.43
2022-09-21T14:00:35.809Z,16.62
2022-09-21T14:05:38.536Z,16.9
2022-09-21T14:10:41.360Z,17.38
2022-09-21T14:15:44.402Z,17.46
2022-09-21T14:20:47.760Z,17.43
2022-09-21T14:25:50.478Z,17.77
2022-09-21T14:30:53.028Z,17.38
2022-09-21T14:35:55.726Z,17.64
2022-09-21T14:40:58.452Z,17.3
2022-09-21T14:46:01.031Z,17.47
2022-09-21T14:51:03.785Z,17.27
2022-09-21T14:56:06.350Z,16.86
2022-09-21T15:01:08.660Z,16.55
2022-09-21T15:06:11.274Z,16.38
2022-09-21T15:11:16.463Z,16.32
2022-09-21T15:16:19.109Z,16.24
2022-09-21T15:21:21.893Z,16.43
2022-09-21T15:26:24.779Z,16.52
2022-09-21T15:31:27.498Z,16.47
2022-09-21T15:36:30.107Z,16.35
2022-09-21T15:41:32.691Z,16.21
2022-09-21T15:46:35.407Z,16.08
2022-09-21T15:51:37.917Z,15.98
2022-09-21T15:56:40.559Z,15.97
2022-09-21T16:01:43.331Z,16.08
2022-09-21T16:06:46.159Z,16.07
2022-09-21T16:11:48.739Z,16.09
2022-09-21T16:16:51.328Z,16
2022-09-21T16:21:54.149Z,15.99
2022-09-21T16:26:56.957Z,15.95
2022-09-21T16:31:59.811Z,16.02
2022-09-21T16:37:02.282Z,15.89
2022-09-21T16:42:04.933Z,15.82
2022-09-21T16:47:07.496Z,15.64
2022-09-21T16:52:10.026Z,15.5
2022-09-21T16:57:12.599Z,15.43
2022-09-21T17:02:15.333Z,15.25
2022-09-21T17:07:17.852Z,15.17
2022-09-21T17:12:20.568Z,15.07
2022-09-21T17:17:23.105Z,14.94
2022-09-21T17:22:25.835Z,14.84
2022-09-21T17:37:33.993Z,14.62
2022-09-21T17:42:36.668Z,14.53
2022-09-21T17:47:40.316Z,14.52
2022-09-21T17:52:43.008Z,14.38
2022-09-21T17:57:45.608Z,14.4
2022-09-21T18:02:48.564Z,14.24
2022-09-21T18:07:51.312Z,14.15
2022-09-21T18:12:53.789Z,14.04
2022-09-21T18:17:56.643Z,14.01
2022-09-21T18:22:59.683Z,14.05
2022-09-21T18:28:02.377Z,13.86
2022-09-21T18:33:04.935Z,13.79
2022-09-21T18:38:07.502Z,13.67
2022-09-21T18:43:09.938Z,13.55
2022-09-21T18:48:12.459Z,13.38
2022-09-21T18:53:14.957Z,13.12
2022-09-21T18:58:17.545Z,12.94
2022-09-21T19:03:20.143Z,12.82
2022-09-21T19:08:22.735Z,12.88
2022-09-21T19:13:25.571Z,12.85
2022-09-21T19:18:28.281Z,12.91
2022-09-21T19:23:30.731Z,12.92
2022-09-21T19:28:33.392Z,12.83
2022-09-21T19:33:49.824Z,12.94
2022-09-21T19:38:38.606Z,12.84
2022-09-21T19:43:43.847Z,12.6
2022-09-21T19:48:46.562Z,12.48
2022-09-21T19:53:49.353Z,12.47
2022-09-21T19:58:52.157Z,12.44
2022-09-21T20:03:55.009Z,12.3
2022-09-21T20:08:57.702Z,12.19
2022-09-21T20:14:00.349Z,12.15
2022-09-21T20:19:02.974Z,12.13
2022-09-21T20:24:05.805Z,12.08
2022-09-21T20:29:13.129Z,11.95
2022-09-21T20:34:10.940Z,11.86
2022-09-21T20:39:13.342Z,11.73
2022-09-21T20:44:16.040Z,11.73
2022-09-21T20:49:18.632Z,11.67
2022-09-21T20:59:23.932Z,11.78
2022-09-21T21:09:30.605Z,11.73
2022-09-21T21:14:33.250Z,11.78
2022-09-21T21:19:35.867Z,11.66
2022-09-21T21:24:38.521Z,11.64
2022-09-21T21:29:41.044Z,11.54
2022-09-21T21:34:43.683Z,11.52
2022-09-21T21:39:46.546Z,11.58
2022-09-21T21:49:51.731Z,11.72
2022-09-21T22:00:00.152Z,11.8
2022-09-21T22:05:02.615Z,11.82
2022-09-21T22:10:05.505Z,11.78
2022-09-21T22:15:08.248Z,11.82
2022-09-21T22:20:11.062Z,11.83
2022-09-21T22:25:13.621Z,11.79
2022-09-21T22:30:16.328Z,11.81
2022-09-21T22:35:19.140Z,11.79
2022-09-21T22:40:21.781Z,11.72
2022-09-21T22:45:24.284Z,11.68
2022-09-21T22:50:26.980Z,11.67
2022-09-21T22:55:29.617Z,11.55
2022-09-21T23:00:32.307Z,11.44
2022-09-21T23:05:34.818Z,11.38
2022-09-21T23:10:37.402Z,11.33
2022-09-21T23:15:39.876Z,11.3
2022-09-21T23:20:42.600Z,11.37
2022-09-21T23:30:47.700Z,11.27
2022-09-21T23:35:50.402Z,11.31
2022-09-21T23:40:53.141Z,11.28
2022-09-21T23:45:55.785Z,11.19
2022-09-21T23:50:58.618Z,11.18
2022-09-21T23:56:01.329Z,11.14
